DABB

Annaba Airport

Annabah, Algeria
METAR DABB 242000Z 00000KT 8000 FEW023 FEW030CB BKN033 10/09 Q1006
Observed Flight Rules
Feb-24 @ 20:00 UTC (16 minutes ago) Marginal Visual Flight Rules
Wind Visibility Clouds
Calm 7,998 meters
  • Few at 2,300' AGL
  • Few at 3,000' AGL
  • Broken at 3,300' AGL
Temperatures Readings
Current 10°C / 50°F
Dewpoint 9°C / 48°F
Humidity 94%
Altimeter 29.7" Hg
Pressure 1006 hPa
Elevation 4
METAR DABB 242000Z 00000KT 8000 FEW023 FEW030CB BKN033 10/09 Q1006
Observed Flight Rules
Feb-24 @ 20:00 UTC
(16 minutes ago)
MVFR
Wind Visibility
Calm 7,998 meters
Clouds
  • Few at 2,300' AGL
  • Few at 3,000' AGL
  • Broken at 3,300' AGL
Temperature Dewpoint
10°C / 50°F 9°C / 48°F
Humidity Altimeter Pressure
94% 29.7" Hg 1006 hPa